Time;durP1;ratioP1;P1;durP2;ratioP2;P2;SDS_P1;SDS_P2;PMS_P1;PMS_P2;Temp;Humidity;BMP_temperature;BMP_pressure;BME280_temperature;BME280_humidity;BME280_pressure;Samples;Min_cycle;Max_cycle;Signal;HPM_P1;HPM_P2
2022/06/13 00:01:58;;;;;;;2.13;1.55;;;;;;;16.60;100.00;99715.44;5080819;28;20105;-51
2022/06/13 00:04:42;;;;;;;2.28;1.13;;;;;;;16.42;100.00;99703.19;5082286;28;20130;-53
2022/06/13 00:07:27;;;;;;;6.13;1.85;;;;;;;16.26;100.00;99693.38;5082184;28;20036;-50
2022/06/13 00:10:13;;;;;;;3.67;1.30;;;;;;;16.38;100.00;99713.06;5081961;28;20071;-51
2022/06/13 00:12:58;;;;;;;3.13;1.52;;;;;;;16.19;100.00;99723.69;5083238;28;20072;-53
2022/06/13 00:15:42;;;;;;;1.83;1.38;;;;;;;16.20;100.00;99696.31;5080348;28;20071;-51
2022/06/13 00:18:27;;;;;;;3.70;1.75;;;;;;;16.16;100.00;99675.41;5082986;28;20626;-52
2022/06/13 00:21:11;;;;;;;3.85;1.60;;;;;;;16.18;100.00;99676.19;5081219;28;20145;-54
2022/06/13 00:23:56;;;;;;;3.05;1.30;;;;;;;16.38;100.00;99670.75;5079840;28;20052;-52
2022/06/13 00:26:40;;;;;;;3.83;2.40;;;;;;;16.29;100.00;99671.22;5081696;28;20051;-51
2022/06/13 00:29:25;;;;;;;2.33;1.73;;;;;;;16.33;100.00;99665.69;5080344;28;20040;-51
2022/06/13 00:32:09;;;;;;;6.15;2.10;;;;;;;16.18;100.00;99653.25;5067914;28;20123;-53
2022/06/13 00:34:54;;;;;;;2.72;1.52;;;;;;;16.22;100.00;99657.47;5066100;28;20060;-52
2022/06/13 00:37:39;;;;;;;3.47;1.58;;;;;;;16.24;100.00;99642.38;5081477;28;20043;-54
2022/06/13 00:40:23;;;;;;;4.72;1.50;;;;;;;16.15;100.00;99634.91;5082922;28;20047;-54
2022/06/13 00:43:09;;;;;;;1.67;1.58;;;;;;;16.31;100.00;99627.06;5083393;28;20099;-55
2022/06/13 00:45:54;;;;;;;4.43;2.88;;;;;;;16.28;100.00;99609.59;5080834;28;20052;-53
2022/06/13 00:48:38;;;;;;;2.00;1.30;;;;;;;16.24;100.00;99610.66;5082243;28;20044;-55
2022/06/13 00:51:24;;;;;;;2.00;1.48;;;;;;;16.21;100.00;99607.31;5081707;28;20467;-52
2022/06/13 00:54:08;;;;;;;2.22;1.40;;;;;;;16.07;100.00;99614.19;5082700;28;20103;-52
2022/06/13 00:56:53;;;;;;;2.78;1.35;;;;;;;15.93;100.00;99606.09;5066265;28;20055;-56
2022/06/13 00:59:39;;;;;;;7.95;3.83;;;;;;;15.80;100.00;99600.56;5080894;28;20101;-54
2022/06/13 01:02:24;;;;;;;4.80;2.15;;;;;;;15.86;100.00;99570.38;5080622;28;20055;-55
2022/06/13 01:05:09;;;;;;;1.30;1.20;;;;;;;15.87;100.00;99558.88;5086335;28;20183;-52
2022/06/13 01:07:55;;;;;;;4.10;1.55;;;;;;;15.99;100.00;99557.38;5084525;28;20051;-53
2022/06/13 01:14:02;;;;;;;2.97;1.60;;;;;;;15.95;100.00;99561.97;5084985;28;20482;-53
2022/06/13 01:17:12;;;;;;;2.40;1.30;;;;;;;16.03;100.00;99570.38;5087401;28;20055;-54
2022/06/13 01:20:08;;;;;;;1.25;1.10;;;;;;;16.15;100.00;99584.72;5087479;28;20044;-55
2022/06/13 01:23:04;;;;;;;1.95;0.90;;;;;;;16.24;100.00;99596.59;5084316;28;20504;-52
2022/06/13 01:25:55;;;;;;;1.75;1.08;;;;;;;16.26;100.00;99605.31;5086411;28;20055;-51
2022/06/13 01:29:17;;;;;;;2.33;1.42;;;;;;;16.12;100.00;99628.03;5086413;28;20192;-53
2022/06/13 01:32:26;;;;;;;1.92;1.83;;;;;;;15.93;100.00;99639.59;5083128;28;20375;-53
2022/06/13 01:35:25;;;;;;;4.40;1.75;;;;;;;15.91;100.00;99642.28;5083547;28;20040;-55
2022/06/13 01:38:54;;;;;;;3.25;1.77;;;;;;;15.88;100.00;99626.59;5086979;28;20058;-59
2022/06/13 01:42:07;;;;;;;3.28;2.30;;;;;;;15.85;100.00;99603.81;5079430;28;20052;-54
2022/06/13 01:45:38;;;;;;;6.77;3.40;;;;;;;15.66;100.00;99550.19;5082209;28;20047;-53
2022/06/13 01:48:41;;;;;;;4.60;3.10;;;;;;;15.57;100.00;99542.75;5062181;28;20762;-54
2022/06/13 01:51:40;;;;;;;3.25;2.20;;;;;;;15.58;100.00;99510.16;5081749;28;20052;-56
2022/06/13 01:54:54;;;;;;;4.13;1.90;;;;;;;15.66;100.00;99507.97;5071088;28;20055;-55
2022/06/13 01:57:42;;;;;;;2.00;1.60;;;;;;;15.63;100.00;99506.34;5084014;28;20397;-51
2022/06/13 02:00:29;;;;;;;1.85;1.50;;;;;;;15.56;100.00;99494.38;5082998;28;20048;-54
2022/06/13 02:03:31;;;;;;;3.83;1.70;;;;;;;15.62;100.00;99495.84;5083582;28;20078;-55
2022/06/13 02:06:25;;;;;;;2.90;1.70;;;;;;;15.56;100.00;99498.81;5082041;28;20048;-56
2022/06/13 02:09:19;;;;;;;3.63;1.60;;;;;;;15.61;100.00;99495.00;5066848;28;20055;-57
2022/06/13 02:12:04;;;;;;;2.45;1.85;;;;;;;15.68;100.00;99505.28;5082722;28;20071;-55
2022/06/13 02:14:58;;;;;;;2.63;1.98;;;;;;;15.38;100.00;99496.16;5080100;28;20037;-55
2022/06/13 02:17:49;;;;;;;4.80;2.60;;;;;;;15.43;100.00;99503.84;5066802;28;20070;-59
2022/06/13 02:20:39;;;;;;;5.13;2.10;;;;;;;15.53;100.00;99483.97;5081867;28;20061;-53
2022/06/13 02:23:29;;;;;;;4.82;2.58;;;;;;;15.52;100.00;99477.00;5083785;28;20044;-54
2022/06/13 02:26:21;;;;;;;4.15;2.25;;;;;;;15.60;100.00;99476.63;5084719;28;20052;-52
2022/06/13 02:29:11;;;;;;;3.15;2.15;;;;;;;15.63;100.00;99473.78;5084641;28;20197;-55
2022/06/13 02:32:09;;;;;;;3.85;1.70;;;;;;;15.57;100.00;99479.41;5066514;28;20059;-56
2022/06/13 02:35:00;;;;;;;4.93;2.33;;;;;;;15.60;100.00;99471.34;5082699;28;20074;-53
2022/06/13 02:37:56;;;;;;;3.58;1.80;;;;;;;15.62;100.00;99477.38;5081031;28;20066;-54
2022/06/13 02:40:53;;;;;;;3.78;2.35;;;;;;;15.69;100.00;99486.72;5082588;28;20050;-53
2022/06/13 02:43:41;;;;;;;3.05;1.90;;;;;;;15.65;100.00;99486.00;5079807;28;20054;-56
2022/06/13 02:46:37;;;;;;;3.55;2.15;;;;;;;15.79;100.00;99485.31;5082995;28;20151;-54
2022/06/13 02:49:32;;;;;;;3.50;2.20;;;;;;;15.85;100.00;99482.34;5080598;28;20416;-55
2022/06/13 02:52:20;;;;;;;2.90;2.10;;;;;;;15.83;100.00;99478.97;5080558;28;20051;-52
2022/06/13 02:55:08;;;;;;;3.53;1.90;;;;;;;15.81;100.00;99488.72;5076423;28;20056;-57
2022/06/13 02:58:04;;;;;;;6.38;2.88;;;;;;;15.75;100.00;99470.56;5081627;28;20059;-56
2022/06/13 03:01:05;;;;;;;3.70;3.40;;;;;;;15.99;100.00;99470.22;5070717;28;20040;-57
2022/06/13 03:04:15;;;;;;;4.00;3.58;;;;;;;15.83;100.00;99475.47;5080348;28;20055;-54
2022/06/13 03:07:13;;;;;;;6.15;3.70;;;;;;;15.97;100.00;99474.75;5082664;28;20040;-52
2022/06/13 03:10:11;;;;;;;4.18;3.22;;;;;;;16.08;100.00;99475.03;5064831;28;20066;-52
2022/06/13 03:13:07;;;;;;;5.45;3.78;;;;;;;16.12;100.00;99471.31;5080871;28;20052;-56
2022/06/13 03:16:02;;;;;;;4.53;3.83;;;;;;;16.01;100.00;99476.28;5080689;28;20059;-56
2022/06/13 03:18:51;;;;;;;3.38;3.00;;;;;;;16.03;100.00;99472.63;5079715;28;20055;-54
2022/06/13 03:21:44;;;;;;;3.90;3.08;;;;;;;16.00;100.00;99474.59;5081841;28;20056;-53
2022/06/13 03:24:41;;;;;;;3.22;2.92;;;;;;;16.02;100.00;99468.28;5080557;28;20108;-51
2022/06/13 03:27:31;;;;;;;3.13;2.80;;;;;;;16.00;100.00;99458.75;5080850;28;20147;-54
2022/06/13 03:30:20;;;;;;;2.88;2.67;;;;;;;16.02;100.00;99457.72;5082082;28;21013;-55
2022/06/13 03:36:14;;;;;;;5.75;2.40;;;;;;;16.00;100.00;99456.94;5082249;28;20051;-57
2022/06/13 03:39:10;;;;;;;2.33;2.05;;;;;;;16.10;100.00;99455.50;5082661;28;20066;-56
2022/06/13 03:42:07;;;;;;;2.10;1.92;;;;;;;16.30;100.00;99454.44;5080801;28;20071;-58
2022/06/13 03:45:17;;;;;;;2.70;2.08;;;;;;;16.38;100.00;99464.63;5068500;28;20091;-54
2022/06/13 03:48:08;;;;;;;2.80;2.42;;;;;;;16.35;100.00;99468.28;5078088;28;20106;-54
2022/06/13 03:50:58;;;;;;;3.30;2.25;;;;;;;16.28;100.00;99489.81;5078922;28;20508;-54
2022/06/13 03:53:49;;;;;;;3.10;2.47;;;;;;;16.22;100.00;99525.34;5081277;28;20079;-53
2022/06/13 03:56:43;;;;;;;3.83;3.45;;;;;;;15.69;100.00;99552.72;5068173;28;20043;-54
2022/06/13 03:59:46;;;;;;;17.23;3.30;;;;;;;15.87;100.00;99557.09;5081374;28;20503;-54
2022/06/13 04:02:32;;;;;;;;;;;;;;;15.59;100.00;99499.50;5079653;28;20467;-48
2022/06/13 04:05:39;;;;;;;8.68;3.75;;;;;;;15.41;100.00;99453.78;5080399;28;20245;-48
2022/06/13 04:08:26;;;;;;;5.18;2.85;;;;;;;15.32;100.00;99456.88;5078780;28;20088;-55
2022/06/13 04:11:27;;;;;;;6.53;3.65;;;;;;;15.29;100.00;99457.03;5062739;28;20109;-52
2022/06/13 04:14:29;;;;;;;4.78;3.00;;;;;;;15.39;100.00;99463.56;5081535;28;20135;-58
2022/06/13 04:17:33;;;;;;;6.90;3.80;;;;;;;15.52;100.00;99460.31;5077321;28;20086;-57
2022/06/13 04:20:30;;;;;;;9.88;3.67;;;;;;;15.64;100.00;99475.53;5061169;28;20097;-55
2022/06/13 04:23:27;;;;;;;9.15;3.40;;;;;;;15.77;100.00;99488.97;5079154;28;20040;-54
2022/06/13 04:26:17;;;;;;;10.65;3.95;;;;;;;15.65;100.00;99499.19;5078431;28;20529;-55
2022/06/13 04:29:11;;;;;;;4.28;2.70;;;;;;;15.55;100.00;99526.13;5075511;28;20083;-53
2022/06/13 04:32:02;;;;;;;4.93;2.38;;;;;;;15.67;100.00;99511.50;5077233;28;20044;-55
2022/06/13 04:34:50;;;;;;;2.65;2.30;;;;;;;15.75;100.00;99522.53;5073143;28;20076;-55
2022/06/13 04:37:39;;;;;;;3.55;2.50;;;;;;;15.70;100.00;99530.69;5078293;28;20067;-52
2022/06/13 04:40:26;;;;;;;3.45;2.00;;;;;;;15.76;100.00;99530.38;5082682;28;20047;-54
2022/06/13 04:43:14;;;;;;;2.17;1.90;;;;;;;15.83;100.00;99541.47;5082995;28;20093;-52
2022/06/13 04:46:11;;;;;;;2.58;2.33;;;;;;;15.67;100.00;99557.25;5082015;28;20055;-53
2022/06/13 04:48:58;;;;;;;3.63;2.53;;;;;;;15.79;100.00;99535.47;5080456;28;20360;-53
2022/06/13 04:51:44;;;;;;;4.85;2.67;;;;;;;15.74;100.00;99528.75;5081189;28;20048;-56
2022/06/13 04:54:43;;;;;;;3.45;2.58;;;;;;;15.50;100.00;99523.75;5083009;28;20506;-52
2022/06/13 04:57:29;;;;;;;2.50;2.30;;;;;;;15.68;100.00;99551.00;5071295;28;20044;-55
2022/06/13 05:00:14;;;;;;;2.50;2.30;;;;;;;15.55;100.00;99534.06;5082176;28;20048;-56
2022/06/13 05:02:59;;;;;;;3.55;2.85;;;;;;;15.47;100.00;99566.13;5084339;28;20467;-55
2022/06/13 05:05:46;;;;;;;2.50;2.30;;;;;;;15.53;100.00;99586.06;5090649;28;20461;-55
2022/06/13 05:08:36;;;;;;;3.72;2.50;;;;;;;15.53;100.00;99588.69;5076403;28;20094;-53
2022/06/13 05:11:27;;;;;;;3.78;2.58;;;;;;;15.41;100.00;99550.56;5087591;28;20055;-54
2022/06/13 05:14:17;;;;;;;4.50;2.78;;;;;;;15.41;100.00;99522.41;5089428;28;20051;-53
2022/06/13 05:17:20;;;;;;;4.50;3.28;;;;;;;15.25;100.00;99505.63;5090057;28;20958;-53
2022/06/13 05:20:31;;;;;;;;;;;;;;;15.30;100.00;99485.13;5088242;28;20047;-55
2022/06/13 05:23:44;;;;;;;4.60;4.05;;;;;;;15.44;100.00;99513.47;5088441;28;19973;-52
2022/06/13 05:26:29;;;;;;;6.03;4.00;;;;;;;15.39;100.00;99526.03;5088803;28;20056;-55
2022/06/13 05:29:13;;;;;;;6.05;4.38;;;;;;;15.52;100.00;99519.22;5087568;28;20044;-55
2022/06/13 05:31:58;;;;;;;4.80;3.63;;;;;;;15.61;100.00;99491.50;5072291;28;20075;-54
2022/06/13 05:34:44;;;;;;;5.72;3.35;;;;;;;15.68;100.00;99481.53;5084474;28;20036;-52
2022/06/13 05:37:29;;;;;;;5.28;3.03;;;;;;;15.89;100.00;99477.75;5083440;28;20460;-55
2022/06/13 05:40:16;;;;;;;3.25;2.95;;;;;;;15.89;100.00;99462.78;5083906;28;20047;-57
2022/06/13 05:43:00;;;;;;;4.15;3.33;;;;;;;15.89;100.00;99472.47;5083955;28;20052;-53
2022/06/13 05:45:45;;;;;;;4.57;3.42;;;;;;;15.98;100.00;99468.50;5084612;28;20047;-54
2022/06/13 05:48:29;;;;;;;4.70;3.72;;;;;;;15.98;100.00;99474.66;5091976;28;20051;-54
2022/06/13 05:51:13;;;;;;;5.25;4.07;;;;;;;16.15;100.00;99471.09;5087624;28;20153;-54
2022/06/13 05:53:58;;;;;;;5.53;3.47;;;;;;;16.14;100.00;99482.63;5090828;28;20044;-55
2022/06/13 05:56:42;;;;;;;4.43;3.95;;;;;;;16.27;100.00;99469.59;5088730;28;20055;-53
2022/06/13 05:59:26;;;;;;;4.55;3.28;;;;;;;16.21;100.00;99484.00;5086625;28;20055;-51
2022/06/13 06:02:11;;;;;;;4.90;3.78;;;;;;;16.18;100.00;99505.28;5089108;28;20044;-62
2022/06/13 06:04:55;;;;;;;5.82;3.22;;;;;;;16.40;100.00;99509.44;5087708;28;20063;-57
2022/06/13 06:07:40;;;;;;;6.00;3.72;;;;;;;16.45;100.00;99512.72;5090530;28;20352;-58
2022/06/13 06:10:30;;;;;;;5.22;3.83;;;;;;;16.52;100.00;99507.00;5086064;28;20051;-58
2022/06/13 06:13:15;;;;;;;4.28;3.60;;;;;;;16.51;100.00;99510.59;5082514;28;20173;-58
2022/06/13 06:16:01;;;;;;;3.80;3.40;;;;;;;16.58;100.00;99506.66;5082621;28;20051;-54
2022/06/13 06:18:46;;;;;;;3.53;2.85;;;;;;;16.57;100.00;99498.81;5086661;28;20055;-54
2022/06/13 06:21:30;;;;;;;5.28;3.20;;;;;;;16.71;100.00;99492.78;5086539;28;20109;-54
2022/06/13 06:24:15;;;;;;;2.90;2.70;;;;;;;16.87;100.00;99488.38;5086343;28;20061;-55
2022/06/13 06:27:00;;;;;;;3.83;3.50;;;;;;;16.80;100.00;99477.28;5082074;28;20063;-54
2022/06/13 06:29:45;;;;;;;3.80;3.45;;;;;;;16.94;100.00;99470.38;5084859;28;20052;-58
2022/06/13 06:32:29;;;;;;;3.75;2.63;;;;;;;17.05;100.00;99471.44;5085408;28;20415;-56
2022/06/13 06:35:14;;;;;;;5.68;3.40;;;;;;;17.03;100.00;99469.84;5083988;28;20094;-54
2022/06/13 06:37:59;;;;;;;3.58;3.28;;;;;;;17.43;100.00;99467.53;5083601;28;20040;-56
2022/06/13 06:40:44;;;;;;;4.28;3.88;;;;;;;17.22;100.00;99462.56;5086427;28;20672;-55
2022/06/13 06:43:28;;;;;;;3.80;3.50;;;;;;;17.18;100.00;99468.97;5081750;28;20040;-53
2022/06/13 06:46:14;;;;;;;3.78;3.30;;;;;;;17.30;100.00;99475.34;5082964;28;20145;-54
2022/06/13 06:48:58;;;;;;;3.67;3.28;;;;;;;17.20;100.00;99479.47;5079999;28;20086;-56
2022/06/13 06:51:43;;;;;;;4.65;3.88;;;;;;;17.35;100.00;99467.97;5077736;28;20044;-54
2022/06/13 07:00:36;;;;;;;;;;;;;;;17.25;100.00;99465.00;5082201;28;20114;-59
2022/06/13 07:03:20;;;;;;;3.47;3.00;;;;;;;17.36;100.00;99448.53;5084968;28;19946;-54
2022/06/13 07:06:07;;;;;;;4.13;3.00;;;;;;;17.21;100.00;99446.75;5080850;28;20039;-58
2022/06/13 07:08:51;;;;;;;4.82;2.97;;;;;;;17.21;100.00;99447.59;5081927;28;20044;-56
2022/06/13 07:11:55;;;;;;;3.65;3.08;;;;;;;17.14;100.00;99443.63;5084009;28;20047;-59
2022/06/13 07:14:39;;;;;;;3.38;3.05;;;;;;;17.14;100.00;99459.50;5079139;28;20386;-54
2022/06/13 07:17:26;;;;;;;5.72;2.85;;;;;;;17.17;100.00;99472.56;5081710;28;20048;-54
2022/06/13 07:20:12;;;;;;;4.45;3.03;;;;;;;16.97;100.00;99478.13;5079920;28;20032;-56
2022/06/13 07:22:56;;;;;;;6.28;2.95;;;;;;;17.09;100.00;99472.13;5077958;28;20794;-56
2022/06/13 07:25:40;;;;;;;3.85;2.83;;;;;;;17.04;100.00;99468.91;5078142;28;20096;-55
2022/06/13 07:28:25;;;;;;;4.30;2.80;;;;;;;17.01;100.00;99475.22;5081415;28;20051;-54
2022/06/13 07:31:19;;;;;;;2.97;2.67;;;;;;;16.98;100.00;99477.19;5078327;28;20094;-56
2022/06/13 07:34:05;;;;;;;2.78;2.40;;;;;;;17.08;100.00;99481.00;5082202;28;20398;-54
2022/06/13 07:36:52;;;;;;;3.95;2.47;;;;;;;17.15;100.00;99476.22;5081819;28;20097;-55
2022/06/13 07:39:36;;;;;;;3.00;2.10;;;;;;;17.48;100.00;99468.13;5082859;28;20040;-52
2022/06/13 07:42:20;;;;;;;2.35;2.10;;;;;;;17.64;100.00;99462.75;5080584;28;20567;-53
2022/06/13 07:45:07;;;;;;;2.90;2.05;;;;;;;17.40;100.00;99465.94;5081480;28;20058;-54
2022/06/13 07:47:52;;;;;;;2.92;1.52;;;;;;;17.46;100.00;99456.78;5079309;28;21418;-54
2022/06/13 07:50:37;;;;;;;1.88;1.55;;;;;;;17.33;100.00;99463.75;5078634;28;20118;-56
2022/06/13 07:53:21;;;;;;;2.50;1.50;;;;;;;17.27;100.00;99467.59;5078576;28;20549;-55
2022/06/13 07:56:06;;;;;;;1.85;1.48;;;;;;;17.12;100.00;99463.16;5080661;28;20134;-58
2022/06/13 07:58:52;;;;;;;5.22;2.33;;;;;;;17.25;100.00;99457.06;5078163;28;20106;-57
2022/06/13 08:01:37;;;;;;;1.27;1.17;;;;;;;17.34;100.00;99458.34;5077536;28;20040;-53
2022/06/13 08:04:22;;;;;;;1.45;1.10;;;;;;;17.30;100.00;99454.19;5079071;28;20514;-54
2022/06/13 08:07:09;;;;;;;2.08;1.20;;;;;;;17.66;100.00;99450.28;5078080;28;20059;-59
2022/06/13 08:09:54;;;;;;;1.92;1.27;;;;;;;17.62;100.00;99446.97;5078277;28;20082;-58
2022/06/13 08:12:41;;;;;;;1.67;1.58;;;;;;;17.67;100.00;99447.53;5076641;28;20055;-57
2022/06/13 08:15:26;;;;;;;2.88;1.25;;;;;;;17.93;100.00;99445.16;5080312;28;20048;-62
2022/06/13 08:18:12;;;;;;;5.05;1.50;;;;;;;17.95;100.00;99449.41;5082088;28;20040;-57
2022/06/13 08:20:56;;;;;;;5.13;1.70;;;;;;;18.15;100.00;99452.63;5081820;28;20122;-56
2022/06/13 08:23:42;;;;;;;1.60;1.50;;;;;;;18.25;100.00;99448.47;5080109;28;20087;-54
2022/06/13 08:26:27;;;;;;;1.45;1.35;;;;;;;18.32;100.00;99446.28;5083289;28;20048;-57
2022/06/13 08:29:12;;;;;;;2.58;1.35;;;;;;;18.29;100.00;99463.22;5079276;28;20117;-58
2022/06/13 08:31:57;;;;;;;2.15;1.25;;;;;;;18.31;100.00;99450.75;5081874;28;20055;-55
2022/06/13 08:34:41;;;;;;;1.60;1.23;;;;;;;18.55;100.00;99460.75;5080759;28;20052;-59
2022/06/13 08:37:26;;;;;;;1.75;0.93;;;;;;;18.34;100.00;99470.91;5079955;28;20105;-59
2022/06/13 08:40:12;;;;;;;1.20;1.10;;;;;;;18.23;100.00;99471.56;5082278;28;20090;-56
2022/06/13 08:43:10;;;;;;;2.40;1.10;;;;;;;18.11;100.00;99459.94;5078756;28;20059;-57
2022/06/13 08:46:07;;;;;;;4.15;1.08;;;;;;;18.12;100.00;99458.13;5079658;28;20391;-54
2022/06/13 08:49:05;;;;;;;1.50;0.77;;;;;;;18.19;100.00;99460.28;5086696;28;20522;-58
2022/06/13 08:52:01;;;;;;;1.33;0.90;;;;;;;18.23;100.00;99463.59;5084254;28;20536;-55
2022/06/13 08:54:53;;;;;;;2.88;1.10;;;;;;;18.18;100.00;99452.44;5083699;28;20094;-54
2022/06/13 08:57:45;;;;;;;1.67;1.10;;;;;;;18.20;100.00;99467.31;5087500;28;20047;-55
2022/06/13 09:00:31;;;;;;;2.08;1.25;;;;;;;18.20;100.00;99474.44;5083574;28;20168;-53
2022/06/13 09:03:23;;;;;;;1.60;1.38;;;;;;;18.32;100.00;99486.03;5082919;28;20044;-55
2022/06/13 09:06:27;;;;;;;5.28;1.65;;;;;;;18.58;100.00;99479.13;5083615;28;20044;-54
2022/06/13 09:09:18;;;;;;;2.67;1.30;;;;;;;18.69;100.00;99469.53;5084371;28;20055;-53
2022/06/13 09:12:07;;;;;;;1.30;0.98;;;;;;;18.95;100.00;99466.16;5084831;28;21423;-54
2022/06/13 09:15:07;;;;;;;1.20;1.10;;;;;;;18.95;100.00;99469.69;5083216;28;20051;-55
2022/06/13 09:18:01;;;;;;;1.88;1.70;;;;;;;18.59;100.00;99472.84;5085678;28;20074;-55
2022/06/13 09:20:56;;;;;;;3.90;1.42;;;;;;;18.97;100.00;99454.50;5084752;28;20067;-55
2022/06/13 09:24:06;;;;;;;2.65;1.92;;;;;;;18.97;100.00;99449.19;5082628;28;20125;-54
2022/06/13 09:27:01;;;;;;;1.95;1.42;;;;;;;19.23;100.00;99466.06;5083203;28;20089;-55
2022/06/13 09:29:54;;;;;;;4.32;2.00;;;;;;;19.07;100.00;99470.69;5087620;28;20066;-57
2022/06/13 09:32:53;;;;;;;2.25;1.55;;;;;;;19.10;100.00;99470.47;5087243;28;20048;-54
2022/06/13 09:35:55;;;;;;;1.85;1.40;;;;;;;19.08;100.00;99465.28;5083704;28;20576;-56
2022/06/13 09:38:53;;;;;;;2.45;1.60;;;;;;;19.04;100.00;99458.47;5083468;28;20048;-51
2022/06/13 09:41:58;;;;;;;2.00;1.30;;;;;;;19.02;100.00;99457.72;5085486;28;20051;-61
2022/06/13 09:45:02;;;;;;;2.55;1.42;;;;;;;19.02;100.00;99455.06;5068970;28;20052;-57
2022/06/13 09:48:01;;;;;;;2.40;1.30;;;;;;;18.79;100.00;99466.34;5082250;28;20101;-53
2022/06/13 09:50:58;;;;;;;1.58;1.25;;;;;;;19.14;100.00;99456.94;5084655;28;20047;-51
2022/06/13 09:54:01;;;;;;;1.80;1.65;;;;;;;18.84;100.00;99458.91;5085133;28;20479;-57
2022/06/13 09:56:52;;;;;;;3.00;1.63;;;;;;;18.61;100.00;99465.66;5083683;28;20094;-56
2022/06/13 09:59:55;;;;;;;2.03;1.52;;;;;;;18.58;100.00;99461.41;5085572;28;20070;-55
2022/06/13 10:03:00;;;;;;;2.13;1.33;;;;;;;18.64;100.00;99452.22;5091382;28;20053;-54
2022/06/13 10:05:56;;;;;;;2.83;1.60;;;;;;;18.41;100.00;99456.31;5089620;28;20471;-55
2022/06/13 10:09:06;;;;;;;1.98;1.55;;;;;;;18.22;100.00;99449.50;5089340;28;20566;-57
2022/06/13 10:12:01;;;;;;;2.47;2.00;;;;;;;17.97;100.00;99463.44;5085223;28;20040;-53
2022/06/13 10:15:23;;;;;;;2.42;1.90;;;;;;;18.04;100.00;99468.38;5089244;28;20109;-58
2022/06/13 10:18:19;;;;;;;5.18;2.03;;;;;;;17.94;100.00;99499.88;5087366;28;20047;-54
2022/06/13 10:21:20;;;;;;;6.57;4.97;;;;;;;16.98;100.00;99530.94;5089098;28;20058;-56
2022/06/13 10:24:20;;;;;;;9.45;4.53;;;;;;;15.71;100.00;99550.88;5072044;28;20036;-53
2022/06/13 10:27:21;;;;;;;10.10;4.75;;;;;;;15.36;100.00;99589.50;5074694;28;20114;-56
2022/06/13 10:30:12;;;;;;;12.73;4.18;;;;;;;15.18;100.00;99634.31;5091043;28;20075;-58
2022/06/13 10:44:18;;;;;;;7.65;4.25;;;;;;;14.71;100.00;99657.56;5129521;27;20484;-59
2022/06/13 10:47:36;;;;;;;8.13;3.70;;;;;;;14.58;100.00;99657.25;5130673;27;20062;-57
2022/06/13 10:50:32;;;;;;;7.10;3.78;;;;;;;14.70;100.00;99656.72;5115362;27;20054;-57
2022/06/13 10:53:23;;;;;;;8.88;3.80;;;;;;;14.77;100.00;99649.38;5121255;27;20073;-55
2022/06/13 10:56:14;;;;;;;6.03;3.95;;;;;;;14.96;100.00;99644.16;5120829;27;20069;-57
2022/06/13 10:58:59;;;;;;;7.95;3.40;;;;;;;15.00;100.00;99634.31;5118837;27;20043;-57
2022/06/13 11:01:56;;;;;;;15.55;7.15;;;;;;;15.17;100.00;99635.22;5121809;27;20069;-57
2022/06/13 11:04:40;;;;;;;12.65;7.65;;;;;;;15.13;100.00;99622.25;5120895;27;20096;-57
2022/06/13 11:07:24;;;;;;;23.40;10.35;;;;;;;15.14;100.00;99619.56;5118656;27;20047;-55
2022/06/13 11:10:36;;;;;;;20.70;9.68;;;;;;;15.23;100.00;99609.50;5117374;27;20823;-59
2022/06/13 11:13:41;;;;;;;14.70;9.15;;;;;;;15.22;100.00;99605.16;5121242;27;20042;-59
2022/06/13 11:22:40;;;;;;;5.57;3.90;;;;;;;15.50;100.00;99594.13;5119418;27;20055;-55
2022/06/13 11:25:29;;;;;;;17.80;8.15;;;;;;;15.43;100.00;99578.56;5133153;27;20051;-58
2022/06/13 11:28:21;;;;;;;12.75;7.22;;;;;;;15.37;100.00;99573.63;5112273;27;20065;-59
2022/06/13 11:31:17;;;;;;;8.30;4.68;;;;;;;15.12;100.00;99573.09;5116706;27;20494;-57
2022/06/13 11:34:20;;;;;;;7.30;3.95;;;;;;;15.19;100.00;99566.59;5114218;27;20040;-60
2022/06/13 11:37:13;;;;;;;8.73;4.65;;;;;;;15.14;100.00;99587.03;5114913;27;20066;-60
2022/06/13 11:40:00;;;;;;;6.80;3.67;;;;;;;15.08;100.00;99595.22;5117159;27;20451;-60
2022/06/13 11:42:51;;;;;;;7.93;3.53;;;;;;;15.12;100.00;99602.09;5114325;27;20051;-57
2022/06/13 11:45:36;;;;;;;6.30;3.97;;;;;;;15.23;100.00;99577.84;5104557;28;20062;-59
2022/06/13 11:48:20;;;;;;;5.75;3.22;;;;;;;15.23;100.00;99591.03;5102633;28;20058;-60
2022/06/13 11:51:17;;;;;;;9.13;4.15;;;;;;;15.51;100.00;99599.34;5102534;28;20688;-60
2022/06/13 11:54:02;;;;;;;7.57;3.83;;;;;;;15.43;100.00;99596.19;5103591;28;20122;-59
2022/06/13 11:56:47;;;;;;;8.55;3.58;;;;;;;15.47;100.00;99600.41;5100810;27;20047;-60
2022/06/13 11:59:32;;;;;;;6.47;4.22;;;;;;;15.51;100.00;99594.06;5102593;27;20051;-59
2022/06/13 12:02:33;;;;;;;6.88;4.07;;;;;;;15.41;100.00;99595.44;5098603;28;20125;-60
2022/06/13 12:05:20;;;;;;;4.25;2.92;;;;;;;15.35;100.00;99593.94;5135356;27;20049;-58
2022/06/13 12:08:14;;;;;;;6.20;4.18;;;;;;;15.36;100.00;99582.44;5105726;28;20656;-61
2022/06/13 12:11:05;;;;;;;6.53;4.45;;;;;;;15.53;100.00;99583.41;5105428;27;20082;-63
2022/06/13 12:13:52;;;;;;;8.57;3.40;;;;;;;15.36;100.00;99587.72;5103142;28;20056;-59
2022/06/13 12:16:51;;;;;;;5.63;2.90;;;;;;;15.48;100.00;99606.56;5106063;27;20047;-61
2022/06/13 12:19:54;;;;;;;6.22;3.33;;;;;;;15.58;100.00;99608.66;5102443;28;20410;-62
2022/06/13 12:22:47;;;;;;;5.43;3.22;;;;;;;15.57;100.00;99617.50;5103294;28;20126;-61
2022/06/13 12:25:52;;;;;;;5.45;3.17;;;;;;;15.56;100.00;99607.03;5103013;27;20591;-62
2022/06/13 12:28:54;;;;;;;5.53;3.35;;;;;;;15.82;100.00;99616.31;5106026;27;20123;-64
2022/06/13 12:31:51;;;;;;;4.82;2.50;;;;;;;15.84;100.00;99603.91;5100309;27;20062;-62
2022/06/13 12:34:49;;;;;;;4.93;2.75;;;;;;;16.02;100.00;99604.75;5100847;28;20040;-63
2022/06/13 12:37:59;;;;;;;5.25;3.28;;;;;;;16.00;100.00;99601.38;5100535;27;20044;-63
2022/06/13 12:41:02;;;;;;;4.65;2.95;;;;;;;16.12;100.00;99606.03;5104679;27;20046;-65
2022/06/13 12:44:14;;;;;;;4.25;2.63;;;;;;;16.24;100.00;99597.44;5099296;28;20071;-65
2022/06/13 12:47:26;;;;;;;5.75;2.67;;;;;;;16.43;100.00;99597.34;5101811;28;20050;-64
2022/06/13 12:50:34;;;;;;;6.38;3.25;;;;;;;16.65;100.00;99596.22;5084252;28;20077;-63
2022/06/13 12:53:25;;;;;;;7.10;3.47;;;;;;;16.72;100.00;99606.38;5099447;28;20031;-67
2022/06/13 12:56:18;;;;;;;8.07;3.05;;;;;;;16.97;100.00;99600.66;5097416;27;20139;-64
2022/06/13 12:59:21;;;;;;;;;;;;;;;16.93;100.00;99604.44;5100167;27;20074;-66
2022/06/13 13:02:30;;;;;;;6.28;3.03;;;;;;;17.23;100.00;99601.88;5098868;27;19919;-62
2022/06/13 13:05:16;;;;;;;5.63;3.53;;;;;;;17.32;100.00;99612.88;5098452;28;20291;-64
2022/06/13 13:08:14;;;;;;;8.02;3.45;;;;;;;17.39;100.00;99587.78;5099209;27;20094;-64
2022/06/13 13:11:38;;;;;;;8.50;4.30;;;;;;;17.70;100.00;99614.22;5099288;27;20144;-64
2022/06/13 13:14:42;;;;;;;5.88;3.60;;;;;;;18.09;100.00;99612.00;5095433;28;20039;-67
2022/06/13 13:17:35;;;;;;;6.35;3.28;;;;;;;18.56;100.00;99632.19;5103944;27;20040;-65
2022/06/13 13:20:32;;;;;;;7.47;3.92;;;;;;;18.89;100.00;99621.34;5097937;28;20040;-69
2022/06/13 13:23:44;;;;;;;7.20;3.97;;;;;;;19.02;100.00;99618.75;5098329;28;20047;-64
2022/06/13 13:26:38;;;;;;;6.55;3.67;;;;;;;18.94;100.00;99619.22;5070966;28;20604;-66
2022/06/13 13:29:43;;;;;;;6.68;3.55;;;;;;;18.81;100.00;99603.22;5098524;28;20036;-65
2022/06/13 13:33:00;;;;;;;9.02;3.05;;;;;;;18.63;100.00;99607.00;5095340;27;20066;-64
2022/06/13 13:35:53;;;;;;;5.82;3.00;;;;;;;18.40;100.00;99605.75;5098112;28;20054;-67
2022/06/13 13:38:43;;;;;;;6.72;3.25;;;;;;;18.06;100.00;99602.44;5099112;27;20425;-64
2022/06/13 13:41:39;;;;;;;5.72;2.80;;;;;;;18.31;100.00;99608.94;5101580;27;20413;-66
2022/06/13 13:44:42;;;;;;;6.05;2.80;;;;;;;18.33;100.00;99610.56;5098082;27;20058;-64
2022/06/13 13:47:29;;;;;;;7.43;3.10;;;;;;;18.17;100.00;99600.03;5123861;27;20070;-65
2022/06/13 13:50:18;;;;;;;7.80;4.00;;;;;;;18.11;100.00;99592.44;5097067;27;20488;-63
2022/06/13 13:53:08;;;;;;;5.72;3.90;;;;;;;18.16;100.00;99590.34;5098171;28;20070;-64
2022/06/13 13:56:04;;;;;;;10.30;6.78;;;;;;;18.14;100.00;99592.25;5099407;28;20059;-60